Time;durP1;ratioP1;P1;durP2;ratioP2;P2;SDS_P1;SDS_P2;PMS_P1;PMS_P2;Temp;Humidity;BMP_temperature;BMP_pressure;BME280_temperature;BME280_humidity;BME280_pressure;Samples;Min_cycle;Max_cycle;Signal;HPM_P1;HPM_P2
2024/02/14 00:01:48;;;;;;;7.43;5.87;;;6.80;36.60;;;;;;10523247;28;20238;-71
2024/02/14 00:06:52;;;;;;;10.00;5.93;;;6.70;36.70;;;;;;10518768;28;21196;-73
2024/02/14 00:11:56;;;;;;;6.10;5.10;;;6.70;36.60;;;;;;10520636;28;20226;-71
2024/02/14 00:17:00;;;;;;;6.77;5.60;;;6.60;36.70;;;;;;10521917;28;20667;-71
2024/02/14 00:22:04;;;;;;;5.77;5.23;;;6.60;37.00;;;;;;10517120;28;20243;-73
2024/02/14 00:27:07;;;;;;;6.63;5.67;;;6.70;36.90;;;;;;10519689;28;20230;-71
2024/02/14 00:32:12;;;;;;;6.37;5.50;;;6.70;36.60;;;;;;10526941;28;20220;-71
2024/02/14 00:37:16;;;;;;;6.07;4.97;;;6.60;36.60;;;;;;10524356;28;20239;-71
2024/02/14 00:42:19;;;;;;;6.20;4.77;;;6.50;36.70;;;;;;10520992;28;20215;-71
2024/02/14 00:47:23;;;;;;;4.87;4.37;;;6.40;36.80;;;;;;10528620;28;20242;-71
2024/02/14 00:52:27;;;;;;;5.47;4.43;;;6.40;37.10;;;;;;10518367;28;20250;-67
2024/02/14 00:57:30;;;;;;;5.63;4.37;;;6.30;37.10;;;;;;10521624;28;20227;-71
2024/02/14 01:02:36;;;;;;;5.17;4.60;;;6.30;37.10;;;;;;10522896;28;20219;-73
2024/02/14 01:07:40;;;;;;;5.63;4.57;;;6.30;37.40;;;;;;10524155;28;20231;-71
2024/02/14 01:12:43;;;;;;;4.70;4.03;;;6.30;37.40;;;;;;10521885;28;20781;-70
2024/02/14 01:17:48;;;;;;;6.00;4.40;;;6.30;37.40;;;;;;10522427;28;20227;-71
2024/02/14 01:22:52;;;;;;;5.23;4.30;;;6.30;37.40;;;;;;10515870;28;20779;-71
2024/02/14 01:27:55;;;;;;;5.63;4.00;;;6.30;37.20;;;;;;10523012;27;21078;-67
2024/02/14 01:33:00;;;;;;;5.93;4.53;;;6.10;37.20;;;;;;10523913;27;20327;-74
2024/02/14 01:38:05;;;;;;;4.13;3.73;;;5.90;37.50;;;;;;10521901;28;20227;-73
2024/02/14 01:43:09;;;;;;;4.80;3.60;;;5.90;37.50;;;;;;10529910;27;20302;-71
2024/02/14 01:48:18;;;;;;;4.20;3.80;;;5.90;37.50;;;;;;10521390;28;20223;-71
2024/02/14 01:53:21;;;;;;;4.67;3.83;;;6.00;37.60;;;;;;10523523;28;20234;-67
2024/02/14 01:58:27;;;;;;;4.97;4.10;;;5.90;37.50;;;;;;10521100;28;20238;-73
2024/02/14 02:03:35;;;;;;;5.13;3.80;;;5.90;37.50;;;;;;10515586;28;20318;-73
2024/02/14 02:08:39;;;;;;;4.60;3.63;;;5.80;37.80;;;;;;10526054;28;20239;-67
2024/02/14 02:13:43;;;;;;;4.67;3.73;;;5.80;37.90;;;;;;10523997;27;20593;-66
2024/02/14 02:18:48;;;;;;;5.53;3.63;;;5.80;38.20;;;;;;10533197;28;21857;-67
2024/02/14 02:23:56;;;;;;;4.13;3.73;;;5.90;38.70;;;;;;10525994;27;20227;-67
2024/02/14 02:29:00;;;;;;;5.80;4.20;;;6.00;38.50;;;;;;10525952;28;20231;-71
2024/02/14 02:34:03;;;;;;;3.97;3.57;;;6.00;38.10;;;;;;10523058;27;20233;-70
2024/02/14 02:39:08;;;;;;;5.60;4.03;;;6.00;38.20;;;;;;10529534;28;20224;-72
2024/02/14 02:44:11;;;;;;;5.60;4.10;;;6.00;38.70;;;;;;10520353;28;20235;-73
2024/02/14 02:49:14;;;;;;;4.50;4.10;;;6.10;38.60;;;;;;10523603;27;20254;-67
2024/02/14 02:54:20;;;;;;;5.50;4.20;;;6.20;38.50;;;;;;10527610;28;20273;-71
2024/02/14 02:59:23;;;;;;;4.67;3.63;;;6.20;38.50;;;;;;10522975;28;20705;-71
2024/02/14 03:04:26;;;;;;;5.30;3.90;;;6.20;38.60;;;;;;10523772;28;20281;-75
2024/02/14 03:09:52;;;;;;;5.97;3.63;;;6.20;38.80;;;;;;10524215;28;20230;-73
2024/02/14 03:14:55;;;;;;;4.93;3.80;;;6.30;39.00;;;;;;10516585;28;20220;-73
2024/02/14 03:19:58;;;;;;;4.17;3.77;;;6.30;38.60;;;;;;10518202;28;20215;-74
2024/02/14 03:25:07;;;;;;;3.57;3.27;;;6.40;38.30;;;;;;10519428;28;20232;-67
2024/02/14 03:30:12;;;;;;;4.03;3.47;;;6.50;38.40;;;;;;10522409;27;20228;-67
2024/02/14 03:35:17;;;;;;;4.97;3.90;;;6.50;38.00;;;;;;10522579;28;20227;-71
2024/02/14 03:40:22;;;;;;;4.57;3.90;;;6.50;38.00;;;;;;10518905;28;20239;-73
2024/02/14 03:45:29;;;;;;;4.30;3.90;;;6.50;38.00;;;;;;10514194;28;20228;-67
2024/02/14 03:50:32;;;;;;;4.53;3.90;;;6.50;38.00;;;;;;10530082;28;20251;-67
2024/02/14 03:55:37;;;;;;;3.90;3.53;;;6.40;37.90;;;;;;10530038;28;20235;-67
2024/02/14 04:00:40;;;;;;;3.77;3.40;;;6.30;38.20;;;;;;10533062;28;20224;-70
2024/02/14 04:05:44;;;;;;;4.13;3.73;;;6.30;38.00;;;;;;10528314;28;20592;-70
2024/02/14 04:10:50;;;;;;;3.97;3.67;;;6.40;37.90;;;;;;10528745;28;20629;-71
2024/02/14 04:15:53;;;;;;;3.90;3.50;;;6.40;38.00;;;;;;10536901;28;20804;-67
2024/02/14 04:20:56;;;;;;;3.93;3.53;;;6.40;37.90;;;;;;10529043;28;20227;-70
2024/02/14 04:26:01;;;;;;;4.27;3.53;;;6.40;37.90;;;;;;10529223;28;20227;-73
2024/02/14 04:31:04;;;;;;;5.47;3.50;;;6.40;37.90;;;;;;10519123;28;20220;-74
2024/02/14 04:36:07;;;;;;;3.93;3.57;;;6.40;37.90;;;;;;10522465;28;20241;-73
2024/02/14 04:41:12;;;;;;;3.60;3.30;;;6.40;37.90;;;;;;10527818;28;20239;-74
2024/02/14 04:46:15;;;;;;;4.20;3.43;;;6.40;38.00;;;;;;10528278;27;20227;-74
2024/02/14 04:51:19;;;;;;;3.77;3.27;;;6.40;38.00;;;;;;10519904;28;20610;-73
2024/02/14 04:56:23;;;;;;;3.70;3.20;;;6.50;38.30;;;;;;10526079;28;20231;-70
2024/02/14 05:01:26;;;;;;;3.30;3.00;;;6.50;38.50;;;;;;10527146;28;20234;-70
2024/02/14 05:06:29;;;;;;;3.63;3.23;;;6.60;38.10;;;;;;10529830;28;20227;-72
2024/02/14 05:11:34;;;;;;;4.20;3.73;;;6.60;38.10;;;;;;10532389;28;20251;-71
2024/02/14 05:16:37;;;;;;;3.60;3.20;;;6.70;38.50;;;;;;10533339;28;20246;-71
2024/02/14 05:21:40;;;;;;;4.70;3.80;;;6.60;38.30;;;;;;10527725;28;20784;-71
2024/02/14 05:26:45;;;;;;;4.33;3.93;;;6.60;38.50;;;;;;10529683;27;20723;-71
2024/02/14 05:31:49;;;;;;;4.93;3.77;;;6.60;38.90;;;;;;10528014;27;21050;-71
2024/02/14 05:36:52;;;;;;;4.87;4.10;;;6.50;39.00;;;;;;10527995;28;20651;-71
2024/02/14 05:41:57;;;;;;;5.63;4.30;;;6.50;39.20;;;;;;10526660;28;20721;-71
2024/02/14 05:47:00;;;;;;;5.93;4.47;;;6.60;39.40;;;;;;10527500;28;20295;-70
2024/02/14 05:52:04;;;;;;;5.63;4.50;;;6.60;39.20;;;;;;10520741;28;20223;-71
2024/02/14 05:57:09;;;;;;;5.60;4.97;;;6.70;39.40;;;;;;10542413;22;20225;-73
2024/02/14 06:02:12;;;;;;;6.07;4.60;;;6.80;39.40;;;;;;10447550;28;20326;-73
2024/02/14 06:07:16;;;;;;;4.53;4.13;;;6.80;39.30;;;;;;10432950;28;20233;-73
2024/02/14 06:12:21;;;;;;;4.33;3.93;;;6.80;39.40;;;;;;10429766;28;20233;-73
2024/02/14 06:17:26;;;;;;;3.90;3.40;;;6.90;39.70;;;;;;10435238;28;20235;-73
2024/02/14 06:22:29;;;;;;;3.40;3.00;;;6.90;39.50;;;;;;10433826;28;20228;-73
2024/02/14 06:27:34;;;;;;;3.40;3.10;;;7.10;39.60;;;;;;10431702;28;20231;-73
2024/02/14 06:32:37;;;;;;;3.80;3.50;;;7.10;39.60;;;;;;10430600;28;20220;-73
2024/02/14 06:37:41;;;;;;;3.27;2.97;;;7.20;39.30;;;;;;10430047;28;20228;-73
2024/02/14 06:42:59;;;;;;;4.20;2.90;;;7.20;39.20;;;;;;10434644;28;20231;-73
2024/02/14 06:48:04;;;;;;;4.87;3.97;;;7.30;39.50;;;;;;10428292;28;20256;-74
2024/02/14 06:53:07;;;;;;;3.67;3.23;;;7.30;39.30;;;;;;10434043;28;20233;-73
2024/02/14 06:58:12;;;;;;;5.97;3.90;;;7.40;39.40;;;;;;10430937;28;20243;-73
2024/02/14 07:03:15;;;;;;;6.27;4.27;;;7.40;39.60;;;;;;10428783;28;20675;-73
2024/02/14 07:08:19;;;;;;;5.27;4.73;;;7.40;39.30;;;;;;10433508;28;20229;-72
2024/02/14 07:13:24;;;;;;;5.60;5.10;;;7.50;39.30;;;;;;10425742;28;20222;-72
2024/02/14 07:18:28;;;;;;;6.10;5.07;;;7.50;39.40;;;;;;10432366;28;20235;-73
2024/02/14 07:23:32;;;;;;;5.33;4.83;;;7.60;39.50;;;;;;10431974;28;20241;-74
2024/02/14 07:28:37;;;;;;;5.00;4.50;;;7.60;39.50;;;;;;10429196;28;20459;-74
2024/02/14 07:33:40;;;;;;;3.83;3.53;;;7.60;39.60;;;;;;10424230;28;20224;-73
2024/02/14 07:38:44;;;;;;;4.33;3.50;;;7.60;39.30;;;;;;10425631;28;20225;-73
2024/02/14 07:43:48;;;;;;;3.47;3.07;;;7.60;39.50;;;;;;10422994;28;20689;-74
2024/02/14 07:48:51;;;;;;;3.67;2.90;;;7.70;39.80;;;;;;10425587;28;20225;-74
2024/02/14 07:53:55;;;;;;;3.90;2.73;;;7.80;39.70;;;;;;10428010;28;20773;-74
2024/02/14 07:59:00;;;;;;;3.77;3.23;;;7.80;39.70;;;;;;10427878;28;20283;-74
2024/02/14 08:04:04;;;;;;;3.83;3.23;;;7.90;40.00;;;;;;10427773;28;20223;-74
2024/02/14 08:09:09;;;;;;;3.20;2.80;;;8.00;39.90;;;;;;10427242;28;20225;-74
2024/02/14 08:14:14;;;;;;;3.30;2.90;;;8.00;39.60;;;;;;10427215;28;20703;-75
2024/02/14 08:19:18;;;;;;;2.73;2.50;;;8.00;40.10;;;;;;10420393;28;20598;-73
2024/02/14 08:24:22;;;;;;;3.03;2.70;;;8.10;39.90;;;;;;10433087;28;20288;-71
2024/02/14 08:29:27;;;;;;;2.57;2.37;;;8.10;40.00;;;;;;10432374;28;20229;-74
2024/02/14 08:34:30;;;;;;;5.37;2.80;;;8.20;40.40;;;;;;10418970;28;20743;-73
2024/02/14 08:39:34;;;;;;;3.20;2.93;;;8.30;41.10;;;;;;10422943;28;20237;-74
2024/02/14 08:44:38;;;;;;;3.23;2.97;;;8.40;40.60;;;;;;10424139;28;20228;-73
2024/02/14 08:49:42;;;;;;;4.23;3.30;;;8.50;40.70;;;;;;10422993;28;20229;-72
2024/02/14 08:54:45;;;;;;;4.27;2.67;;;8.70;40.70;;;;;;10424715;28;20236;-73
2024/02/14 08:59:50;;;;;;;4.57;2.70;;;8.80;40.60;;;;;;10427318;28;20232;-73
2024/02/14 09:04:54;;;;;;;3.00;2.70;;;8.90;40.70;;;;;;10423809;28;20244;-73
2024/02/14 09:09:58;;;;;;;3.47;2.67;;;9.00;40.70;;;;;;10422375;28;20304;-74
2024/02/14 09:15:04;;;;;;;4.37;3.33;;;9.20;40.60;;;;;;10423481;28;20229;-73
2024/02/14 09:20:09;;;;;;;3.37;2.80;;;9.30;41.00;;;;;;10421714;28;20228;-73
2024/02/14 09:25:13;;;;;;;5.30;2.63;;;9.50;41.00;;;;;;10424328;28;20217;-73
2024/02/14 09:30:18;;;;;;;6.37;2.97;;;9.60;40.70;;;;;;10419938;28;20228;-73
2024/02/14 09:35:35;;;;;;;4.87;3.13;;;9.80;40.70;;;;;;10425453;28;20742;-72
2024/02/14 09:40:38;;;;;;;3.43;3.00;;;9.90;40.80;;;;;;10424071;28;20773;-73
2024/02/14 09:45:45;;;;;;;2.87;2.60;;;10.00;40.60;;;;;;10418436;28;20661;-73
2024/02/14 09:50:49;;;;;;;3.47;2.57;;;10.10;40.00;;;;;;10430126;28;20640;-73
2024/02/14 09:55:55;;;;;;;5.83;2.83;;;10.30;40.20;;;;;;10433085;28;20225;-73
2024/02/14 10:01:00;;;;;;;3.40;2.30;;;10.40;40.30;;;;;;10430962;28;20229;-74
2024/02/14 10:06:04;;;;;;;3.07;2.43;;;10.50;39.70;;;;;;10425053;28;20224;-73
2024/02/14 10:11:10;;;;;;;4.07;2.40;;;10.60;39.90;;;;;;10428739;28;20229;-72
2024/02/14 10:16:15;;;;;;;4.93;3.73;;;10.80;40.00;;;;;;10436851;28;20424;-73
2024/02/14 10:21:19;;;;;;;4.60;3.10;;;10.90;39.80;;;;;;10426430;28;20233;-72
2024/02/14 10:26:22;;;;;;;4.13;2.80;;;11.10;39.90;;;;;;10428815;28;20232;-73
2024/02/14 10:31:27;;;;;;;3.30;2.40;;;11.30;39.90;;;;;;10430293;28;20248;-72
2024/02/14 10:36:34;;;;;;;2.43;2.23;;;11.50;39.70;;;;;;10433977;28;20225;-72
2024/02/14 10:41:37;;;;;;;4.20;2.40;;;11.80;39.50;;;;;;10432156;28;20226;-73
2024/02/14 10:46:44;;;;;;;3.00;2.30;;;12.00;39.60;;;;;;10429221;28;20229;-72
2024/02/14 10:51:49;;;;;;;3.17;2.53;;;12.20;39.40;;;;;;10431170;28;20296;-73
2024/02/14 10:56:57;;;;;;;3.30;1.80;;;12.50;39.50;;;;;;10430177;28;20854;-74
2024/02/14 11:02:02;;;;;;;1.50;1.40;;;12.80;38.80;;;;;;10432627;28;20236;-75
2024/02/14 11:07:10;;;;;;;1.97;1.33;;;13.20;38.30;;;;;;10433317;28;20562;-74
2024/02/14 11:12:14;;;;;;;1.50;1.40;;;13.50;37.30;;;;;;10429823;28;20228;-73
2024/02/14 11:17:26;;;;;;;1.73;1.40;;;13.70;37.80;;;;;;10428012;28;20226;-72
2024/02/14 11:22:36;;;;;;;3.70;1.53;;;13.80;36.90;;;;;;10429542;28;20229;-73
2024/02/14 11:27:46;;;;;;;1.67;1.53;;;13.80;37.20;;;;;;10429672;28;20256;-74
2024/02/14 11:32:50;;;;;;;3.03;2.00;;;13.80;37.40;;;;;;10430075;28;20312;-73
2024/02/14 11:37:54;;;;;;;2.17;1.60;;;13.80;37.80;;;;;;10432889;28;20260;-74
2024/02/14 11:42:57;;;;;;;1.60;1.40;;;13.80;37.80;;;;;;10427803;28;20221;-74
2024/02/14 11:48:02;;;;;;;2.40;1.70;;;13.80;37.70;;;;;;10432859;28;20263;-75
2024/02/14 11:53:08;;;;;;;2.40;1.70;;;13.70;37.20;;;;;;10427423;28;23888;-74
2024/02/14 11:58:13;;;;;;;2.13;1.70;;;13.70;37.70;;;;;;10432908;28;20244;-75
2024/02/14 12:03:20;;;;;;;2.27;1.77;;;13.70;37.60;;;;;;10427812;28;20320;-75
2024/02/14 12:08:24;;;;;;;1.80;1.70;;;13.70;37.50;;;;;;10425524;28;20260;-75
2024/02/14 12:13:32;;;;;;;2.33;2.00;;;13.80;37.90;;;;;;10431573;28;20239;-75
2024/02/14 12:18:36;;;;;;;2.60;1.50;;;14.00;38.10;;;;;;10418234;28;20233;-74
2024/02/14 12:23:40;;;;;;;2.10;1.90;;;14.10;37.50;;;;;;10427042;28;20613;-74
2024/02/14 12:28:47;;;;;;;3.03;1.90;;;14.20;37.90;;;;;;10420810;28;20240;-74
2024/02/14 12:33:54;;;;;;;2.13;1.90;;;14.30;37.10;;;;;;10420314;28;20726;-74
2024/02/14 12:38:58;;;;;;;1.60;1.50;;;14.40;37.60;;;;;;10419740;28;20259;-74
2024/02/14 12:44:01;;;;;;;1.77;1.50;;;14.50;37.80;;;;;;10428168;28;20492;-74
2024/02/14 12:49:06;;;;;;;1.83;1.50;;;14.40;37.70;;;;;;10442093;28;20245;-71
2024/02/14 12:54:12;;;;;;;1.50;1.40;;;14.40;37.70;;;;;;10444684;28;20734;-72
2024/02/14 12:59:19;;;;;;;1.37;1.37;;;14.40;37.70;;;;;;10444440;28;20240;-73
2024/02/14 13:04:24;;;;;;;2.27;1.40;;;14.40;37.70;;;;;;10445156;28;20928;-72
2024/02/14 13:09:28;;;;;;;1.60;1.43;;;14.30;38.90;;;;;;10445044;28;20256;-71
2024/02/14 13:14:32;;;;;;;1.50;1.40;;;14.40;38.20;;;;;;10445079;28;20229;-71
2024/02/14 13:19:38;;;;;;;2.23;1.67;;;14.40;38.00;;;;;;10445979;28;20731;-72
2024/02/14 13:24:42;;;;;;;2.50;1.50;;;14.50;37.90;;;;;;10451830;28;20723;-71
2024/02/14 13:29:45;;;;;;;1.60;1.50;;;14.50;37.90;;;;;;10453628;28;20238;-72
2024/02/14 13:34:50;;;;;;;1.53;1.43;;;14.60;38.60;;;;;;10452441;28;20573;-72
2024/02/14 13:39:53;;;;;;;1.50;1.40;;;14.70;37.70;;;;;;10454625;28;20306;-72
2024/02/14 13:44:57;;;;;;;1.40;1.30;;;14.90;38.10;;;;;;10454285;28;20225;-72
2024/02/14 13:50:03;;;;;;;1.43;1.33;;;15.00;37.60;;;;;;10453810;28;20279;-72
2024/02/14 13:55:07;;;;;;;1.93;1.20;;;15.10;37.40;;;;;;10453876;28;20224;-72
2024/02/14 14:00:12;;;;;;;1.73;1.40;;;15.20;37.30;;;;;;10453838;28;20304;-73
2024/02/14 14:05:17;;;;;;;1.40;1.30;;;15.40;37.20;;;;;;10451266;28;20282;-72
2024/02/14 14:10:21;;;;;;;1.60;1.50;;;15.50;36.80;;;;;;10453301;28;20237;-72
2024/02/14 14:15:28;;;;;;;1.43;1.30;;;15.60;37.10;;;;;;10452774;28;20235;-72
2024/02/14 14:20:34;;;;;;;1.73;1.20;;;15.60;36.80;;;;;;10452846;28;20231;-70
2024/02/14 14:25:37;;;;;;;1.30;1.10;;;15.70;36.40;;;;;;10451719;28;20232;-72
2024/02/14 14:30:40;;;;;;;1.53;1.30;;;15.70;36.70;;;;;;10452441;28;20299;-72
2024/02/14 14:35:45;;;;;;;1.50;1.40;;;15.80;36.60;;;;;;10452184;28;20232;-72
2024/02/14 14:40:49;;;;;;;2.70;1.50;;;15.80;36.30;;;;;;10451821;28;20312;-72
2024/02/14 14:45:52;;;;;;;2.50;1.80;;;15.80;36.50;;;;;;10451812;28;20311;-73
2024/02/14 14:50:58;;;;;;;1.50;1.40;;;15.80;36.40;;;;;;10451432;28;20312;-72
2024/02/14 14:56:02;;;;;;;1.40;1.30;;;15.90;36.20;;;;;;10451046;28;20294;-72
2024/02/14 15:01:06;;;;;;;1.40;1.20;;;15.90;37.20;;;;;;10451336;28;20306;-72
2024/02/14 15:06:10;;;;;;;1.70;1.53;;;15.90;36.40;;;;;;10451119;28;20584;-72
2024/02/14 15:11:16;;;;;;;1.80;1.70;;;15.90;36.20;;;;;;10450853;28;20232;-72
2024/02/14 15:16:20;;;;;;;2.20;1.77;;;15.90;36.20;;;;;;10450980;28;20291;-72
2024/02/14 15:21:25;;;;;;;2.80;1.80;;;15.80;36.30;;;;;;10450758;28;20311;-72
2024/02/14 15:26:40;;;;;;;2.03;1.80;;;15.80;36.10;;;;;;10450404;28;20245;-72
2024/02/14 15:37:05;;;;;;;2.30;1.80;;;15.70;36.00;;;;;;10449629;28;20275;-72
2024/02/14 15:42:10;;;;;;;2.33;2.00;;;15.60;35.90;;;;;;10449266;28;20225;-71
2024/02/14 15:47:13;;;;;;;2.67;2.23;;;15.60;36.20;;;;;;10448668;28;20283;-73
2024/02/14 15:52:18;;;;;;;3.00;2.50;;;15.50;36.20;;;;;;10448485;28;20252;-72
2024/02/14 15:57:21;;;;;;;2.47;2.00;;;15.50;36.20;;;;;;10448824;28;20237;-72
2024/02/14 16:02:24;;;;;;;4.70;3.63;;;15.50;36.50;;;;;;10447097;28;20224;-73
2024/02/14 16:07:29;;;;;;;3.30;2.70;;;15.40;36.50;;;;;;10405975;28;20230;-73
2024/02/14 16:12:32;;;;;;;2.33;2.13;;;15.40;36.50;;;;;;10407368;28;20305;-73
2024/02/14 16:17:35;;;;;;;2.00;1.80;;;15.30;36.60;;;;;;10430247;28;20229;-73
2024/02/14 16:22:41;;;;;;;3.20;2.97;;;15.20;36.70;;;;;;10447997;28;20956;-74
2024/02/14 16:27:45;;;;;;;4.63;4.23;;;15.20;36.70;;;;;;10436282;28;20233;-74
2024/02/14 16:32:49;;;;;;;8.57;5.83;;;15.30;36.80;;;;;;10406683;28;20225;-73
2024/02/14 16:37:54;;;;;;;6.60;6.00;;;15.20;36.90;;;;;;10406255;28;20229;-73
2024/02/14 16:42:58;;;;;;;5.87;5.23;;;15.20;36.80;;;;;;10406043;28;20308;-73
2024/02/14 16:48:01;;;;;;;6.67;6.07;;;15.10;37.10;;;;;;10406111;28;20221;-74
2024/02/14 16:53:06;;;;;;;5.17;4.27;;;15.10;37.10;;;;;;10405640;28;20221;-73
2024/02/14 16:58:10;;;;;;;3.67;2.87;;;15.10;37.00;;;;;;10404626;28;20253;-73
2024/02/14 17:03:14;;;;;;;2.30;2.10;;;15.10;37.10;;;;;;10405962;28;20229;-73
2024/02/14 17:08:21;;;;;;;4.03;3.70;;;15.00;37.10;;;;;;10405559;28;20275;-74
2024/02/14 17:13:27;;;;;;;5.83;4.77;;;14.90;37.30;;;;;;10405150;28;20240;-74
2024/02/14 17:18:32;;;;;;;5.03;4.00;;;14.80;37.50;;;;;;10405323;28;20312;-74
2024/02/14 17:23:39;;;;;;;3.60;3.30;;;14.80;37.40;;;;;;10405449;28;20628;-73
2024/02/14 17:28:43;;;;;;;4.60;4.00;;;14.80;37.50;;;;;;10404564;28;20229;-73
2024/02/14 17:33:46;;;;;;;3.67;3.37;;;14.80;37.50;;;;;;10404737;28;20233;-73
2024/02/14 17:38:52;;;;;;;5.10;4.70;;;14.80;37.50;;;;;;10404503;28;20715;-73
2024/02/14 17:43:55;;;;;;;4.10;3.80;;;14.80;37.60;;;;;;10405375;28;20229;-73
2024/02/14 17:48:58;;;;;;;2.53;2.13;;;14.80;37.70;;;;;;10404539;28;20226;-73
2024/02/14 17:54:06;;;;;;;2.30;1.80;;;14.80;37.50;;;;;;10404362;28;20224;-74
2024/02/14 17:59:10;;;;;;;2.57;1.70;;;14.80;37.50;;;;;;10404259;28;20226;-73
2024/02/14 18:04:13;;;;;;;1.67;1.50;;;14.80;37.40;;;;;;10404271;28;20230;-74
2024/02/14 18:09:18;;;;;;;3.20;2.90;;;14.80;37.40;;;;;;10407324;28;20609;-74
2024/02/14 18:14:21;;;;;;;3.30;3.10;;;14.80;37.70;;;;;;10412323;28;20261;-73
2024/02/14 18:19:24;;;;;;;5.50;4.83;;;14.70;37.60;;;;;;10411552;28;20241;-73
2024/02/14 18:24:29;;;;;;;5.40;4.90;;;14.70;37.70;;;;;;10411910;28;20225;-73
2024/02/14 18:29:32;;;;;;;8.10;7.13;;;14.70;37.90;;;;;;10411419;28;20240;-74
2024/02/14 18:34:35;;;;;;;7.07;6.40;;;14.60;37.60;;;;;;10411623;28;20296;-73
2024/02/14 18:39:40;;;;;;;6.37;5.77;;;14.60;37.60;;;;;;10411043;28;20238;-73
2024/02/14 18:44:43;;;;;;;5.93;5.37;;;14.50;37.90;;;;;;10410713;28;20268;-73
2024/02/14 18:49:46;;;;;;;6.20;5.63;;;14.40;37.80;;;;;;10410692;28;20234;-73
2024/02/14 18:54:51;;;;;;;8.67;7.77;;;14.40;38.00;;;;;;10410218;28;20746;-73
2024/02/14 18:59:54;;;;;;;11.47;10.43;;;14.40;38.10;;;;;;10409732;28;20545;-73
2024/02/14 19:04:57;;;;;;;10.13;9.13;;;14.30;38.00;;;;;;10410042;28;20294;-73
2024/02/14 19:10:03;;;;;;;8.37;7.57;;;14.20;38.10;;;;;;10409635;28;20234;-74
2024/02/14 19:15:08;;;;;;;9.80;8.80;;;14.00;38.60;;;;;;10409490;28;20253;-74
2024/02/14 19:20:12;;;;;;;6.93;6.30;;;13.80;38.60;;;;;;10408534;28;20243;-74
2024/02/14 19:25:17;;;;;;;7.43;6.73;;;13.80;38.80;;;;;;10408948;28;20245;-73
2024/02/14 19:30:21;;;;;;;7.97;7.17;;;13.70;39.20;;;;;;10409440;28;20313;-73
2024/02/14 19:35:24;;;;;;;7.67;6.97;;;13.70;39.20;;;;;;10408857;28;20257;-72
2024/02/14 19:40:29;;;;;;;7.60;6.90;;;13.60;39.20;;;;;;10408520;28;20352;-73
2024/02/14 19:45:36;;;;;;;7.60;6.80;;;13.60;39.70;;;;;;10407524;28;20751;-72
2024/02/14 19:50:40;;;;;;;8.90;8.10;;;13.60;39.40;;;;;;10406703;28;20271;-72
2024/02/14 19:55:44;;;;;;;7.77;7.07;;;13.50;39.60;;;;;;10418924;28;20233;-74
2024/02/14 20:00:48;;;;;;;6.57;5.97;;;13.50;40.10;;;;;;10438940;28;20238;-72
2024/02/14 20:05:52;;;;;;;7.23;6.53;;;13.40;39.90;;;;;;10445275;28;20588;-74
2024/02/14 20:10:59;;;;;;;9.20;6.53;;;13.40;40.10;;;;;;10443434;28;20236;-72
2024/02/14 20:16:02;;;;;;;6.07;5.47;;;13.40;40.30;;;;;;10442579;28;20253;-72
2024/02/14 20:21:06;;;;;;;5.17;4.13;;;13.30;40.00;;;;;;10447173;28;20564;-71
2024/02/14 20:26:11;;;;;;;4.40;4.00;;;13.30;40.10;;;;;;10443466;28;20228;-71
2024/02/14 20:31:14;;;;;;;4.93;3.37;;;13.20;40.40;;;;;;10442067;28;20228;-75
2024/02/14 20:36:18;;;;;;;3.53;3.23;;;13.20;40.20;;;;;;10444486;28;20318;-74
2024/02/14 20:41:22;;;;;;;3.90;3.53;;;13.20;40.40;;;;;;10444525;28;20341;-72
2024/02/14 20:46:26;;;;;;;4.30;3.90;;;13.20;40.70;;;;;;10443565;28;20229;-71
2024/02/14 20:51:31;;;;;;;4.47;4.07;;;13.20;40.60;;;;;;10443932;28;20232;-73
2024/02/14 20:56:36;;;;;;;4.93;4.40;;;13.20;40.60;;;;;;10443370;28;20256;-73
2024/02/14 21:01:39;;;;;;;5.80;5.20;;;13.20;40.80;;;;;;10444144;28;20225;-72
2024/02/14 21:06:42;;;;;;;7.57;6.17;;;13.20;40.60;;;;;;10443106;28;20228;-73
2024/02/14 21:11:47;;;;;;;6.90;6.13;;;13.30;40.60;;;;;;10440775;28;20233;-72
2024/02/14 21:16:50;;;;;;;6.47;5.87;;;13.30;40.60;;;;;;10438193;28;20715;-71
2024/02/14 21:21:53;;;;;;;5.97;5.30;;;13.40;40.50;;;;;;10443548;28;20311;-71
2024/02/14 21:26:58;;;;;;;4.97;4.53;;;13.30;40.40;;;;;;10443189;28;20231;-71
2024/02/14 21:32:01;;;;;;;4.63;3.97;;;13.40;40.90;;;;;;10443240;28;20228;-71
2024/02/14 21:37:05;;;;;;;4.33;3.93;;;13.40;40.70;;;;;;10443288;28;20303;-74
2024/02/14 21:42:10;;;;;;;5.30;4.20;;;13.40;40.50;;;;;;10444284;28;20235;-71
2024/02/14 21:47:14;;;;;;;4.27;3.87;;;13.40;40.70;;;;;;10462437;28;20217;-71
2024/02/14 21:52:18;;;;;;;4.00;3.70;;;13.50;40.40;;;;;;10441487;28;20240;-71
2024/02/14 21:57:23;;;;;;;4.33;3.93;;;13.50;40.30;;;;;;10438197;28;20236;-71
2024/02/14 22:02:27;;;;;;;4.63;4.20;;;13.50;40.40;;;;;;10448654;28;20228;-70
2024/02/14 22:07:30;;;;;;;4.80;4.40;;;13.50;40.20;;;;;;10448212;28;20767;-71
2024/02/14 22:12:36;;;;;;;3.97;3.57;;;13.50;40.00;;;;;;10445109;28;20228;-71
2024/02/14 22:17:41;;;;;;;5.17;4.63;;;13.50;40.30;;;;;;10458506;28;20590;-71
2024/02/14 22:22:44;;;;;;;2.80;2.60;;;13.50;40.10;;;;;;10453629;28;20315;-71
2024/02/14 22:27:50;;;;;;;2.10;1.90;;;13.40;40.10;;;;;;10451728;28;20260;-71
2024/02/14 22:32:53;;;;;;;1.60;1.50;;;13.40;40.90;;;;;;10451687;28;20687;-70
2024/02/14 22:37:57;;;;;;;1.80;1.70;;;13.30;40.90;;;;;;10454950;28;20228;-71
2024/02/14 22:43:02;;;;;;;2.43;2.00;;;13.40;41.20;;;;;;10451228;28;20220;-71
2024/02/14 22:48:07;;;;;;;2.47;2.27;;;13.40;41.60;;;;;;10450443;28;20231;-71
2024/02/14 22:53:10;;;;;;;3.93;3.53;;;13.40;42.00;;;;;;10449186;28;20233;-71
2024/02/14 22:58:15;;;;;;;3.73;3.43;;;13.30;41.20;;;;;;10443072;28;20233;-71
2024/02/14 23:03:18;;;;;;;4.03;3.67;;;13.30;41.70;;;;;;10450448;28;20228;-71
2024/02/14 23:08:21;;;;;;;4.30;3.90;;;13.20;41.30;;;;;;10450368;28;20228;-71
2024/02/14 23:13:26;;;;;;;4.13;3.80;;;13.30;41.30;;;;;;10458006;28;20695;-71
2024/02/14 23:18:29;;;;;;;4.20;3.80;;;13.30;41.50;;;;;;10449810;28;20232;-71
2024/02/14 23:23:33;;;;;;;4.77;3.80;;;13.30;41.10;;;;;;10449328;28;20753;-71
2024/02/14 23:28:38;;;;;;;4.10;3.70;;;13.30;41.20;;;;;;10449445;28;20275;-71
2024/02/14 23:33:42;;;;;;;3.53;3.23;;;13.30;41.60;;;;;;10454413;28;20227;-71
2024/02/14 23:38:45;;;;;;;4.00;3.60;;;13.30;41.20;;;;;;10453817;28;20228;-71
2024/02/14 23:43:52;;;;;;;4.10;3.70;;;13.30;41.40;;;;;;10445310;28;20580;-71
2024/02/14 23:48:56;;;;;;;3.97;3.67;;;13.30;41.50;;;;;;10448119;28;20576;-71
2024/02/14 23:53:59;;;;;;;4.97;3.90;;;13.30;41.20;;;;;;10448476;28;20224;-72
2024/02/14 23:59:04;;;;;;;3.10;2.90;;;13.30;41.10;;;;;;10455517;28;20228;-71
